Accueil
METAR-TAF:

METAR-TAF

Aéroports :

Aéroport de Stuttgart

Stuttgart, Allemagne

latitude: 48-41N, longitude: 009-13E, altitude: 396 m

Observation

Le bulletin a été fait il y a 14 minutes, à 21:20 UTC
Vent 2 kt de nord/nord-ouest
Température 13°C
Humidité 82%
Pression 1030 hPa
Visibilité 10 km ou plus
Quelques nuages à une hauteur de 3400 ft
Nuages fragmentés à une hauteur de 4800 ft

METAR: EDDS 062120Z AUTO 34002KT 9999 FEW034 BKN048 13/10 Q1030

Heure: 23:34 (21:34 UTC)

Prévision

Le bulletin a été fait il y a 4 heures et 34 minutes, à 17:00 UTC
Prévision valable du 06 à 18 UTC au 07 à 18 UTC
Vent 3 kt de direction variable
Visibilité 10 km ou plus
Nuages épars à une hauteur de 3000 ft
Probabilité 40% :
Temporairement
du 07 à 02 UTC au 07 à 08 UTC
Visibilité: 0400 m
Nuages fragmentés à une hauteur de 100 ft
brouillard

TAF: EDDS 061700Z 0618/0718 VRB03KT 9999 SCT030 PROB40 TEMPO 0702/0708 0400 FG BKN001

Observations et prévisions météorologiques de plus de 4000 aéroports (messages METAR et TAF).

Les stations disponibles sont représentées par des disques jaunes et rouges sur la carte.

Passer la souris dessus pour voir le nom de la station.

Cliquer dessus pour voir les observations et prévisions météorologiques.

Pour changer de carte: cliquez sur les boutons verts avec une croix noire pour zoomer, sur le bouton vert avec un tiret pour effectuer un zoom arrière, ou sur les flèches vertes pour les cartes adjacentes.


METAR-TAF: